Time;durP1;ratioP1;P1;durP2;ratioP2;P2;SDS_P1;SDS_P2;PMS_P1;PMS_P2;Temp;Humidity;BMP_temperature;BMP_pressure;BME280_temperature;BME280_humidity;BME280_pressure;Samples;Min_cycle;Max_cycle;Signal;HPM_P1;HPM_P2
2023/07/29 00:01:31;;;;;;;13.45;11.27;;;18.50;99.90;;;;;;6093304;23;20504;-86
2023/07/29 00:03:57;;;;;;;12.80;10.57;;;18.50;99.90;;;;;;6093867;23;20336;-86
2023/07/29 00:06:23;;;;;;;12.57;10.40;;;18.50;99.90;;;;;;6069888;23;20097;-86
2023/07/29 00:08:49;;;;;;;14.27;11.10;;;18.40;99.90;;;;;;6069688;23;20309;-86
2023/07/29 00:11:15;;;;;;;15.40;11.00;;;18.40;99.90;;;;;;6069588;23;20018;-86
2023/07/29 00:13:41;;;;;;;13.52;10.60;;;18.40;99.90;;;;;;6093878;23;20057;-86
2023/07/29 00:16:06;;;;;;;14.02;10.52;;;18.40;99.90;;;;;;6068720;23;20054;-86
2023/07/29 00:18:32;;;;;;;15.35;11.23;;;18.30;99.90;;;;;;6070012;23;20014;-85
2023/07/29 00:20:58;;;;;;;13.65;11.52;;;18.30;99.90;;;;;;6068593;23;20017;-86
2023/07/29 00:23:24;;;;;;;14.88;12.15;;;18.30;99.90;;;;;;6093017;23;20052;-86
2023/07/29 00:25:49;;;;;;;14.85;12.02;;;18.20;99.90;;;;;;6069226;23;20336;-86
2023/07/29 00:28:15;;;;;;;17.80;12.38;;;18.20;99.90;;;;;;6068897;23;20018;-86
2023/07/29 00:30:41;;;;;;;17.55;12.40;;;18.20;99.90;;;;;;6092942;23;20356;-85
2023/07/29 00:33:07;;;;;;;15.30;11.85;;;18.20;99.90;;;;;;6069309;23;20018;-86
2023/07/29 00:35:33;;;;;;;15.65;11.85;;;18.20;99.90;;;;;;6069599;23;20019;-85
2023/07/29 00:37:59;;;;;;;14.13;10.77;;;18.20;99.90;;;;;;6069191;23;20015;-86
2023/07/29 00:40:28;;;;;;;15.30;11.63;;;18.10;99.90;;;;;;6070066;23;20019;-86
2023/07/29 00:42:54;;;;;;;14.32;11.60;;;18.10;99.90;;;;;;6093442;23;20332;-86
2023/07/29 00:45:20;;;;;;;13.73;11.82;;;18.10;99.90;;;;;;6069664;23;20058;-86
2023/07/29 00:47:46;;;;;;;20.13;12.40;;;18.10;99.90;;;;;;6093190;23;20088;-85
2023/07/29 00:50:14;;;;;;;17.60;12.73;;;18.00;99.90;;;;;;6093821;23;20065;-86
2023/07/29 00:52:40;;;;;;;16.73;11.98;;;18.00;99.90;;;;;;6093464;23;20026;-85
2023/07/29 00:55:07;;;;;;;15.20;11.95;;;17.90;99.90;;;;;;6093451;23;20029;-85
2023/07/29 00:57:33;;;;;;;16.50;12.60;;;17.90;99.90;;;;;;6069508;23;20010;-86
2023/07/29 01:00:00;;;;;;;16.77;12.65;;;17.80;99.90;;;;;;6093002;23;20014;-86
2023/07/29 01:02:26;;;;;;;17.75;13.15;;;17.80;99.90;;;;;;6093089;23;20347;-86
2023/07/29 01:04:57;;;;;;;19.95;13.75;;;17.80;99.90;;;;;;6092766;23;20471;-86
2023/07/29 01:07:38;;;;;;;18.98;13.48;;;17.80;99.90;;;;;;6068772;23;20018;-86
2023/07/29 01:10:26;;;;;;;18.60;13.63;;;17.80;99.90;;;;;;6093426;23;20419;-86
2023/07/29 01:13:22;;;;;;;20.95;13.95;;;17.80;99.90;;;;;;6094583;23;20010;-86
2023/07/29 01:15:55;;;;;;;17.70;12.98;;;17.80;99.90;;;;;;6094581;23;20014;-86
2023/07/29 01:18:29;;;;;;;16.65;13.40;;;17.80;99.90;;;;;;6094063;23;20015;-86
2023/07/29 01:20:59;;;;;;;17.60;13.50;;;17.70;99.90;;;;;;6094036;23;20029;-86
2023/07/29 01:23:33;;;;;;;16.30;12.45;;;17.70;99.90;;;;;;6094936;23;20445;-86
2023/07/29 01:25:59;;;;;;;16.38;12.75;;;17.80;99.90;;;;;;6095312;23;20018;-86
2023/07/29 01:28:25;;;;;;;18.90;13.75;;;17.70;99.90;;;;;;6094683;23;20021;-86
2023/07/29 01:30:59;;;;;;;15.18;12.15;;;17.70;99.90;;;;;;6095071;23;20053;-85
2023/07/29 01:33:30;;;;;;;16.33;12.88;;;17.60;99.90;;;;;;6094708;23;20344;-86
2023/07/29 01:36:02;;;;;;;16.92;12.88;;;17.60;99.90;;;;;;6094442;23;20022;-86
2023/07/29 01:38:33;;;;;;;16.98;12.18;;;17.60;99.90;;;;;;6093688;23;20459;-86
2023/07/29 01:41:01;;;;;;;16.55;12.15;;;17.60;99.90;;;;;;6094124;23;20097;-85
2023/07/29 01:43:31;;;;;;;16.42;12.73;;;17.60;99.90;;;;;;6069999;23;20388;-86
2023/07/29 01:45:57;;;;;;;14.52;12.18;;;17.50;99.90;;;;;;6070077;23;20018;-86
2023/07/29 01:48:22;;;;;;;15.93;12.10;;;17.60;99.90;;;;;;6069370;23;20011;-86
2023/07/29 01:50:48;;;;;;;14.85;12.25;;;17.50;99.90;;;;;;6070558;23;20018;-86
2023/07/29 01:53:14;;;;;;;16.55;12.48;;;17.50;99.90;;;;;;6070497;23;20025;-86
2023/07/29 01:55:40;;;;;;;15.73;12.20;;;17.50;99.90;;;;;;6070321;23;20018;-86
2023/07/29 01:58:06;;;;;;;15.45;12.60;;;17.50;99.90;;;;;;6094338;23;20018;-86
2023/07/29 02:00:32;;;;;;;15.82;12.07;;;17.40;99.90;;;;;;6070378;23;20014;-86
2023/07/29 02:02:57;;;;;;;15.00;11.27;;;17.50;99.90;;;;;;6070401;23;20015;-86
2023/07/29 02:05:23;;;;;;;15.48;11.68;;;17.50;99.90;;;;;;6070723;23;20401;-86
2023/07/29 02:07:49;;;;;;;18.17;13.00;;;17.40;99.90;;;;;;6070717;23;20015;-86
2023/07/29 02:10:15;;;;;;;17.42;11.77;;;17.50;99.90;;;;;;6071113;23;20018;-86
2023/07/29 02:12:41;;;;;;;17.13;11.88;;;17.40;99.90;;;;;;6094185;23;20471;-86
2023/07/29 02:15:07;;;;;;;15.77;12.20;;;17.40;99.90;;;;;;6070566;23;20014;-86
2023/07/29 02:17:33;;;;;;;16.85;12.13;;;17.40;99.90;;;;;;6070233;23;20014;-86
2023/07/29 02:19:59;;;;;;;15.95;12.18;;;17.30;99.90;;;;;;6070424;23;20018;-86
2023/07/29 02:22:24;;;;;;;17.23;12.00;;;17.40;99.90;;;;;;6093942;23;20011;-86
2023/07/29 02:24:50;;;;;;;15.15;11.65;;;17.30;99.90;;;;;;6070226;23;20029;-85
2023/07/29 02:27:16;;;;;;;14.60;11.05;;;17.30;99.90;;;;;;6093683;23;20018;-86
2023/07/29 02:29:42;;;;;;;15.13;10.80;;;17.30;99.90;;;;;;6069798;23;20097;-86
2023/07/29 02:32:08;;;;;;;17.05;11.00;;;17.30;99.90;;;;;;6070679;23;20425;-85
2023/07/29 02:34:34;;;;;;;15.00;10.77;;;17.30;99.90;;;;;;6070465;23;20023;-86
2023/07/29 02:37:00;;;;;;;13.95;10.93;;;17.30;99.90;;;;;;6070300;23;20021;-86
2023/07/29 02:39:25;;;;;;;13.68;10.60;;;17.30;99.90;;;;;;6069907;23;20018;-86
2023/07/29 02:41:51;;;;;;;13.93;10.63;;;17.30;99.90;;;;;;6095587;23;20211;-86
2023/07/29 02:44:17;;;;;;;17.50;10.88;;;17.30;99.90;;;;;;6069952;23;20017;-86
2023/07/29 02:46:43;;;;;;;13.73;10.73;;;17.30;99.90;;;;;;6094116;23;20022;-86
2023/07/29 02:49:09;;;;;;;14.13;10.23;;;17.40;99.90;;;;;;6093747;23;20345;-86
2023/07/29 02:51:34;;;;;;;13.43;11.07;;;17.40;99.90;;;;;;6070558;23;20021;-86
2023/07/29 02:54:00;;;;;;;13.80;10.50;;;17.40;99.90;;;;;;6093541;23;20022;-86
2023/07/29 02:56:26;;;;;;;13.98;10.90;;;17.30;99.90;;;;;;6069881;23;20021;-86
2023/07/29 02:58:51;;;;;;;12.50;10.63;;;17.30;99.90;;;;;;6069874;23;20011;-86
2023/07/29 03:01:18;;;;;;;13.25;10.95;;;17.30;99.90;;;;;;6069763;23;20089;-86
2023/07/29 03:03:43;;;;;;;13.68;10.52;;;17.30;99.90;;;;;;6069892;23;20021;-86
2023/07/29 03:06:11;;;;;;;12.10;9.98;;;17.30;99.90;;;;;;6070179;23;20093;-86
2023/07/29 03:08:37;;;;;;;13.25;9.98;;;17.30;99.90;;;;;;6093175;23;20352;-86
2023/07/29 03:11:10;;;;;;;13.77;10.00;;;17.30;99.90;;;;;;6069699;23;20018;-86
2023/07/29 03:13:37;;;;;;;13.65;10.68;;;17.30;99.90;;;;;;6069804;23;20373;-86
2023/07/29 03:16:16;;;;;;;14.45;10.77;;;17.30;99.90;;;;;;6069884;23;20025;-85
2023/07/29 03:18:43;;;;;;;12.32;9.60;;;17.30;99.90;;;;;;6093239;23;20054;-86
2023/07/29 03:21:10;;;;;;;15.05;11.05;;;17.30;99.90;;;;;;6093390;23;20014;-85
2023/07/29 03:23:36;;;;;;;12.45;10.30;;;17.30;99.90;;;;;;6093129;23;20460;-86
2023/07/29 03:26:09;;;;;;;12.95;10.68;;;17.30;99.90;;;;;;6093622;23;20069;-86
2023/07/29 03:28:37;;;;;;;12.75;10.00;;;17.30;99.90;;;;;;6093782;23;20018;-86
2023/07/29 03:31:03;;;;;;;11.88;10.07;;;17.30;99.90;;;;;;6069967;23;20022;-86
2023/07/29 03:33:28;;;;;;;13.35;10.20;;;17.20;99.90;;;;;;6092872;23;20014;-86
2023/07/29 03:35:54;;;;;;;13.05;10.52;;;17.20;99.90;;;;;;6070090;23;20437;-86
2023/07/29 03:38:20;;;;;;;13.18;10.50;;;17.20;99.90;;;;;;6069674;23;20527;-86
2023/07/29 03:40:46;;;;;;;15.73;9.98;;;17.10;99.90;;;;;;6069897;23;20029;-86
2023/07/29 03:43:12;;;;;;;14.73;10.38;;;17.10;99.90;;;;;;6069305;23;20459;-86
2023/07/29 03:45:41;;;;;;;11.98;10.10;;;17.10;99.90;;;;;;6068512;23;20115;-86
2023/07/29 03:48:07;;;;;;;12.50;9.23;;;17.10;99.90;;;;;;6092983;23;20018;-86
2023/07/29 03:50:35;;;;;;;12.02;9.45;;;17.10;99.90;;;;;;6093131;23;20122;-86
2023/07/29 03:53:01;;;;;;;17.52;9.55;;;17.00;99.90;;;;;;6093043;23;20026;-86
2023/07/29 03:55:29;;;;;;;14.00;9.88;;;17.00;99.90;;;;;;6092197;23;20018;-86
2023/07/29 03:57:58;;;;;;;13.57;8.75;;;17.00;99.90;;;;;;6045713;23;20041;-86
2023/07/29 04:00:24;;;;;;;9.80;8.18;;;17.00;99.90;;;;;;6069254;23;20018;-86
2023/07/29 04:02:51;;;;;;;11.85;9.38;;;16.90;99.90;;;;;;6068572;23;20038;-86
2023/07/29 04:05:17;;;;;;;10.55;8.70;;;16.90;99.90;;;;;;6093602;23;20021;-86
2023/07/29 04:07:43;;;;;;;12.02;9.25;;;16.90;99.90;;;;;;6093217;23;20018;-86
2023/07/29 04:10:09;;;;;;;11.32;8.85;;;16.90;99.90;;;;;;6093193;23;20042;-86
2023/07/29 04:12:35;;;;;;;11.32;8.88;;;16.90;99.90;;;;;;6093263;23;20018;-86
2023/07/29 04:15:01;;;;;;;11.52;8.48;;;16.80;99.90;;;;;;6093118;23;20029;-86
2023/07/29 04:17:26;;;;;;;9.75;8.43;;;16.90;99.90;;;;;;6093349;23;20046;-86
2023/07/29 04:19:52;;;;;;;12.40;7.95;;;16.90;99.90;;;;;;6068860;23;20010;-86
2023/07/29 04:22:18;;;;;;;10.23;8.60;;;16.90;99.90;;;;;;6045767;23;20113;-85
2023/07/29 04:24:43;;;;;;;12.07;8.13;;;16.80;99.90;;;;;;6093358;23;20105;-86
2023/07/29 04:27:09;;;;;;;10.70;7.25;;;16.80;99.90;;;;;;6093419;23;20022;-85
2023/07/29 04:29:35;;;;;;;10.45;7.25;;;16.80;99.90;;;;;;6068688;23;20473;-86
2023/07/29 04:32:05;;;;;;;12.27;7.78;;;16.80;99.90;;;;;;6091485;23;20014;-86
2023/07/29 04:34:30;;;;;;;8.27;7.22;;;16.80;99.90;;;;;;6091402;23;20831;-86
2023/07/29 04:36:56;;;;;;;9.27;7.05;;;16.90;99.90;;;;;;6067925;23;20014;-86
2023/07/29 04:39:22;;;;;;;10.00;7.15;;;16.90;99.90;;;;;;6091502;23;20575;-86
2023/07/29 04:41:48;;;;;;;7.78;6.57;;;16.90;99.90;;;;;;6091248;23;20010;-86
2023/07/29 04:44:13;;;;;;;8.07;6.72;;;17.00;99.90;;;;;;6067979;23;20010;-85
2023/07/29 04:46:39;;;;;;;7.78;6.63;;;17.00;99.90;;;;;;6069413;23;20326;-86
2023/07/29 04:49:05;;;;;;;8.40;6.22;;;17.00;99.90;;;;;;6046714;23;20015;-86
2023/07/29 04:51:34;;;;;;;7.60;6.03;;;17.00;99.90;;;;;;6093835;23;20097;-86
2023/07/29 04:54:00;;;;;;;7.80;5.70;;;17.10;99.90;;;;;;6070879;23;20054;-86
2023/07/29 04:56:26;;;;;;;7.93;5.72;;;17.10;99.90;;;;;;6069227;23;20465;-86
2023/07/29 04:58:52;;;;;;;6.60;5.68;;;17.10;99.90;;;;;;6093068;23;20161;-86
2023/07/29 05:01:18;;;;;;;7.82;6.00;;;17.10;99.90;;;;;;6068936;23;20034;-86
2023/07/29 05:03:44;;;;;;;8.55;6.13;;;17.10;99.90;;;;;;6092635;23;20014;-86
2023/07/29 05:06:10;;;;;;;8.35;5.68;;;17.10;99.90;;;;;;6069787;23;20025;-86
2023/07/29 05:08:36;;;;;;;7.80;5.32;;;17.10;99.90;;;;;;6093245;23;20093;-86
2023/07/29 05:11:01;;;;;;;7.57;5.10;;;17.10;99.90;;;;;;6093306;23;20024;-86
2023/07/29 05:13:27;;;;;;;7.47;5.05;;;17.10;99.90;;;;;;6069542;23;20022;-86
2023/07/29 05:15:54;;;;;;;6.70;4.93;;;17.10;99.90;;;;;;6045887;23;20078;-86
2023/07/29 05:18:20;;;;;;;9.45;5.72;;;17.10;99.90;;;;;;6069370;23;20049;-86
2023/07/29 05:20:47;;;;;;;5.95;5.15;;;17.10;99.90;;;;;;6069868;23;20015;-86
2023/07/29 05:23:12;;;;;;;5.38;4.22;;;17.20;99.90;;;;;;6093756;23;20021;-86
2023/07/29 05:25:38;;;;;;;6.60;4.82;;;17.10;99.90;;;;;;6093021;23;20022;-85
2023/07/29 05:28:04;;;;;;;6.35;4.53;;;17.10;99.90;;;;;;6093836;23;20021;-86
2023/07/29 05:30:37;;;;;;;6.00;4.43;;;17.10;99.90;;;;;;6069608;23;20464;-85
2023/07/29 05:33:04;;;;;;;6.35;4.47;;;17.10;99.90;;;;;;6093348;23;20022;-85
2023/07/29 05:35:30;;;;;;;5.63;4.45;;;17.10;99.90;;;;;;6093724;23;20250;-85
2023/07/29 05:37:56;;;;;;;7.25;4.80;;;17.20;99.90;;;;;;6094120;23;20033;-86
2023/07/29 05:40:22;;;;;;;5.82;4.85;;;17.20;99.90;;;;;;6070399;23;20021;-85
2023/07/29 05:42:48;;;;;;;8.10;4.70;;;17.20;99.90;;;;;;6070129;23;20010;-86
2023/07/29 05:45:13;;;;;;;5.45;4.65;;;17.20;99.90;;;;;;6070293;23;20474;-86
2023/07/29 05:47:39;;;;;;;7.45;4.93;;;17.20;99.90;;;;;;6093626;23;20015;-86
2023/07/29 05:50:05;;;;;;;5.28;4.38;;;17.20;99.90;;;;;;6070198;23;20019;-85
2023/07/29 05:52:32;;;;;;;5.90;4.63;;;17.20;99.90;;;;;;6070259;23;20466;-86
2023/07/29 05:54:57;;;;;;;9.93;4.72;;;17.20;99.90;;;;;;6070208;23;20015;-85
2023/07/29 05:57:23;;;;;;;7.43;4.50;;;17.30;99.90;;;;;;6069352;23;20030;-86
2023/07/29 05:59:49;;;;;;;7.63;4.57;;;17.20;99.90;;;;;;6070424;23;20437;-85
2023/07/29 06:02:14;;;;;;;5.35;4.20;;;17.30;99.90;;;;;;6093615;23;20021;-86
2023/07/29 06:04:40;;;;;;;7.53;4.55;;;17.20;99.90;;;;;;6069602;23;20045;-86
2023/07/29 06:07:06;;;;;;;5.30;4.07;;;17.20;99.90;;;;;;6093112;23;20018;-85
2023/07/29 06:09:32;;;;;;;6.00;4.68;;;17.30;99.90;;;;;;6093210;23;20117;-85
2023/07/29 06:11:57;;;;;;;5.30;4.22;;;17.30;99.90;;;;;;6093058;23;20054;-85
2023/07/29 06:14:24;;;;;;;6.80;4.13;;;17.40;99.90;;;;;;6069708;23;20025;-84
2023/07/29 06:16:50;;;;;;;7.18;4.20;;;17.40;99.90;;;;;;6068913;23;20081;-86
2023/07/29 06:19:15;;;;;;;10.43;5.25;;;17.40;99.90;;;;;;6069372;23;20049;-85
2023/07/29 06:21:41;;;;;;;8.07;4.90;;;17.40;99.90;;;;;;6068842;23;20445;-86
2023/07/29 06:24:07;;;;;;;6.18;5.00;;;17.40;99.90;;;;;;6093253;23;20010;-85
2023/07/29 06:26:33;;;;;;;5.57;4.50;;;17.50;99.90;;;;;;6069235;23;20473;-81
2023/07/29 06:28:58;;;;;;;7.20;5.38;;;17.50;99.90;;;;;;6066675;23;20014;-85
2023/07/29 06:31:24;;;;;;;12.13;5.22;;;17.50;99.90;;;;;;6069046;23;20463;-84
2023/07/29 06:33:50;;;;;;;7.10;5.40;;;17.50;99.90;;;;;;6045157;23;20803;-85
2023/07/29 06:36:16;;;;;;;7.72;5.30;;;17.60;99.90;;;;;;6092986;23;20018;-86
2023/07/29 06:38:41;;;;;;;9.38;5.45;;;17.60;99.90;;;;;;6045630;23;20069;-85
2023/07/29 06:41:07;;;;;;;7.93;5.65;;;17.70;99.90;;;;;;6045565;23;20452;-84
2023/07/29 06:43:33;;;;;;;6.82;5.60;;;17.90;99.90;;;;;;6093529;23;20014;-83
2023/07/29 06:45:59;;;;;;;7.63;5.38;;;17.90;99.90;;;;;;6068967;23;20024;-84
2023/07/29 06:48:25;;;;;;;8.73;5.15;;;18.00;99.90;;;;;;6093871;23;20341;-84
2023/07/29 06:50:51;;;;;;;7.78;5.13;;;18.00;99.90;;;;;;6070498;23;20022;-84
2023/07/29 06:53:17;;;;;;;11.80;4.90;;;18.10;99.90;;;;;;6093064;23;20025;-82
2023/07/29 06:55:44;;;;;;;7.85;5.35;;;18.20;99.90;;;;;;6092355;23;20014;-83
2023/07/29 06:58:10;;;;;;;8.52;4.90;;;18.20;99.90;;;;;;6044630;23;20344;-85
2023/07/29 07:00:36;;;;;;;7.90;5.38;;;18.20;99.90;;;;;;6092595;23;20117;-84
2023/07/29 07:03:01;;;;;;;8.38;5.22;;;18.20;99.90;;;;;;6068772;23;20467;-85
2023/07/29 07:05:27;;;;;;;8.70;4.90;;;18.30;99.90;;;;;;6044798;23;20015;-84
2023/07/29 07:07:53;;;;;;;9.30;5.90;;;18.30;99.90;;;;;;6044109;23;20018;-82
2023/07/29 07:10:19;;;;;;;10.57;6.03;;;18.40;99.90;;;;;;6045619;23;20101;-82
2023/07/29 07:12:45;;;;;;;9.15;5.60;;;18.50;99.90;;;;;;6092574;23;20053;-85
2023/07/29 07:15:11;;;;;;;16.15;8.13;;;18.60;99.90;;;;;;6092205;23;20023;-83
2023/07/29 07:17:36;;;;;;;10.45;7.30;;;18.60;99.90;;;;;;6068103;23;20057;-83
2023/07/29 07:20:03;;;;;;;16.73;7.63;;;18.50;99.90;;;;;;6068631;23;20097;-83
2023/07/29 07:22:29;;;;;;;10.48;7.93;;;18.60;99.90;;;;;;6070124;23;20755;-83
2023/07/29 07:24:54;;;;;;;12.05;7.75;;;18.60;99.90;;;;;;6092843;23;20018;-82
2023/07/29 07:27:20;;;;;;;11.05;8.32;;;18.60;99.90;;;;;;6092721;23;20356;-82
2023/07/29 07:29:46;;;;;;;12.23;8.23;;;18.60;99.90;;;;;;6068519;23;20022;-83
2023/07/29 07:32:12;;;;;;;11.32;8.45;;;18.60;99.90;;;;;;6042737;23;20018;-84
2023/07/29 07:34:37;;;;;;;11.25;8.32;;;18.70;99.90;;;;;;6068975;23;20022;-82
2023/07/29 07:37:04;;;;;;;9.93;7.72;;;18.80;99.90;;;;;;6068880;23;20042;-83
2023/07/29 07:39:31;;;;;;;10.13;7.85;;;18.90;99.90;;;;;;6045564;23;20014;-83
2023/07/29 07:41:56;;;;;;;10.60;7.90;;;19.00;99.90;;;;;;6067988;23;20010;-80
2023/07/29 07:44:22;;;;;;;10.13;7.80;;;19.00;99.90;;;;;;6067060;23;20684;-81
2023/07/29 07:46:48;;;;;;;11.65;7.50;;;19.10;99.90;;;;;;6044800;23;20021;-85
2023/07/29 07:49:14;;;;;;;12.55;7.57;;;19.20;99.90;;;;;;6092045;23;20011;-83
2023/07/29 07:51:40;;;;;;;10.95;8.35;;;19.20;99.90;;;;;;6068037;23;20014;-82
2023/07/29 07:54:05;;;;;;;10.38;7.13;;;19.20;99.90;;;;;;6067623;23;20044;-83
2023/07/29 07:56:31;;;;;;;10.98;6.63;;;19.30;99.90;;;;;;6042719;23;20532;-83
2023/07/29 07:58:57;;;;;;;8.70;7.25;;;19.40;99.90;;;;;;6089403;23;20069;-84
2023/07/29 08:01:22;;;;;;;10.23;7.30;;;19.50;99.90;;;;;;6067840;23;20046;-84
2023/07/29 08:03:48;;;;;;;8.90;7.00;;;19.50;99.90;;;;;;6067959;23;20021;-83
2023/07/29 08:06:14;;;;;;;9.82;6.82;;;19.50;99.90;;;;;;6064172;23;20025;-83
2023/07/29 08:08:39;;;;;;;12.90;6.45;;;19.60;99.90;;;;;;6088837;23;20895;-79
2023/07/29 08:11:05;;;;;;;10.02;7.97;;;19.60;99.90;;;;;;6087837;23;20335;-83
2023/07/29 08:13:31;;;;;;;9.60;7.10;;;19.60;99.90;;;;;;6088099;23;20709;-82
2023/07/29 08:15:57;;;;;;;8.65;6.90;;;19.60;99.90;;;;;;6087441;23;20081;-83
2023/07/29 08:18:22;;;;;;;9.38;6.63;;;19.60;99.90;;;;;;6086443;23;20057;-83
2023/07/29 08:21:02;;;;;;;6.95;6.10;;;19.60;99.90;;;;;;6061222;23;20018;-82
2023/07/29 08:23:32;;;;;;;6.78;5.82;;;19.60;99.90;;;;;;6087366;23;20018;-85
2023/07/29 08:26:02;;;;;;;9.05;5.97;;;19.60;99.90;;;;;;6087797;23;20664;-84
2023/07/29 08:28:38;;;;;;;7.78;6.03;;;19.70;99.90;;;;;;6063767;23;20477;-86
2023/07/29 08:31:05;;;;;;;6.43;5.70;;;19.80;99.90;;;;;;6063660;23;20015;-85
2023/07/29 08:33:33;;;;;;;7.95;5.35;;;19.80;99.90;;;;;;6064280;23;20029;-83
2023/07/29 08:35:59;;;;;;;7.00;5.85;;;19.80;99.90;;;;;;6087627;23;20018;-83
2023/07/29 08:38:25;;;;;;;7.95;6.00;;;19.80;99.90;;;;;;6088184;23;20101;-84
2023/07/29 08:41:06;;;;;;;8.70;6.30;;;19.80;99.90;;;;;;6068091;23;20017;-83
2023/07/29 08:43:33;;;;;;;8.63;6.32;;;19.80;99.90;;;;;;6091513;23;20416;-84
2023/07/29 08:46:00;;;;;;;5.72;5.15;;;19.90;99.90;;;;;;6068167;23;20074;-84
2023/07/29 08:48:35;;;;;;;6.25;5.38;;;20.00;99.90;;;;;;6092220;23;20030;-82
2023/07/29 08:51:03;;;;;;;5.93;5.28;;;20.10;99.90;;;;;;6090397;23;20460;-87
2023/07/29 08:53:30;;;;;;;5.78;4.88;;;20.10;99.90;;;;;;6067380;23;20504;-83
2023/07/29 08:55:56;;;;;;;10.60;5.63;;;20.10;99.90;;;;;;6115655;23;20054;-85
2023/07/29 08:58:24;;;;;;;6.28;5.00;;;20.20;99.90;;;;;;6067865;23;20754;-85
2023/07/29 09:00:50;;;;;;;6.13;5.53;;;20.30;99.90;;;;;;6091884;23;20041;-84
2023/07/29 09:03:16;;;;;;;5.22;4.72;;;20.30;99.90;;;;;;6067708;23;20014;-87
2023/07/29 09:05:42;;;;;;;6.43;4.88;;;20.40;99.90;;;;;;6068414;23;20386;-85
2023/07/29 09:08:08;;;;;;;6.28;4.60;;;20.40;99.90;;;;;;6094088;23;20014;-85
2023/07/29 09:10:37;;;;;;;6.13;4.95;;;20.40;99.90;;;;;;6069785;23;20014;-85
2023/07/29 09:13:04;;;;;;;5.82;4.90;;;20.50;99.90;;;;;;6093416;23;20014;-87
2023/07/29 09:15:31;;;;;;;6.05;4.72;;;20.50;99.90;;;;;;6069872;23;20314;-82
2023/07/29 09:17:58;;;;;;;5.50;4.28;;;20.40;99.90;;;;;;6093963;23;20026;-86
2023/07/29 09:20:27;;;;;;;5.93;4.07;;;20.30;99.90;;;;;;6093733;23;20015;-86
2023/07/29 09:22:59;;;;;;;6.82;4.28;;;20.20;99.90;;;;;;6091920;23;20479;-81
2023/07/29 09:25:29;;;;;;;4.90;4.13;;;20.40;99.90;;;;;;6093548;23;20569;-87
2023/07/29 09:28:07;;;;;;;4.90;3.70;;;20.60;99.90;;;;;;6092440;23;20364;-85
2023/07/29 09:30:32;;;;;;;4.72;4.15;;;20.90;99.90;;;;;;6092374;23;20025;-88
2023/07/29 09:32:58;;;;;;;5.32;3.70;;;21.10;99.90;;;;;;6095312;23;20018;-83
2023/07/29 09:35:28;;;;;;;6.28;3.53;;;21.30;99.90;;;;;;6094576;23;20097;-85
2023/07/29 09:37:54;;;;;;;4.65;3.15;;;21.50;99.90;;;;;;6095198;23;20040;-84
2023/07/29 09:40:20;;;;;;;3.45;2.88;;;21.60;99.90;;;;;;6070149;23;20070;-84
2023/07/29 09:42:58;;;;;;;4.93;2.92;;;21.80;99.90;;;;;;6094674;23;20022;-85
2023/07/29 09:45:26;;;;;;;6.18;3.33;;;21.90;99.90;;;;;;6094872;23;20015;-82
2023/07/29 09:47:53;;;;;;;4.05;2.78;;;21.80;99.90;;;;;;6095514;23;20028;-89
2023/07/29 09:50:23;;;;;;;5.55;3.15;;;21.50;99.90;;;;;;6094979;23;20026;-88
2023/07/29 09:52:51;;;;;;;3.70;3.10;;;21.30;99.90;;;;;;6094558;23;20021;-85
2023/07/29 09:55:19;;;;;;;3.55;3.03;;;21.40;99.90;;;;;;6095425;23;20018;-87
2023/07/29 09:57:45;;;;;;;4.03;3.17;;;21.50;99.90;;;;;;6094251;23;20453;-87
2023/07/29 10:00:12;;;;;;;4.10;3.00;;;21.80;99.90;;;;;;6094481;23;20033;-85
2023/07/29 10:02:43;;;;;;;4.07;3.00;;;21.80;99.90;;;;;;6070728;23;20336;-87
2023/07/29 10:05:10;;;;;;;5.15;3.20;;;22.10;99.90;;;;;;6070518;23;20020;-85
2023/07/29 10:07:40;;;;;;;6.30;3.08;;;22.20;99.90;;;;;;6091286;23;20455;-85
2023/07/29 10:10:07;;;;;;;3.90;3.00;;;22.40;99.90;;;;;;6089164;23;20107;-85
2023/07/29 10:12:34;;;;;;;3.20;2.90;;;22.70;99.90;;;;;;6066346;23;20018;-85
2023/07/29 10:15:02;;;;;;;4.47;3.20;;;22.60;99.90;;;;;;6090081;23;20594;-86
2023/07/29 10:17:30;;;;;;;4.90;3.08;;;22.60;99.90;;;;;;6066443;23;20093;-85
2023/07/29 10:19:59;;;;;;;3.53;2.90;;;22.50;99.90;;;;;;6089243;23;20024;-82
2023/07/29 10:22:37;;;;;;;4.18;2.72;;;22.40;99.90;;;;;;6043714;23;20018;-85
2023/07/29 10:25:07;;;;;;;6.25;3.03;;;22.30;99.90;;;;;;6091227;23;20091;-86
2023/07/29 10:27:46;;;;;;;5.25;2.40;;;22.10;99.90;;;;;;6088732;23;20032;-84
2023/07/29 10:30:15;;;;;;;4.65;2.70;;;22.00;99.90;;;;;;6113713;23;20054;-86
2023/07/29 10:32:45;;;;;;;3.92;2.40;;;22.10;99.90;;;;;;6089414;23;20026;-83
2023/07/29 10:35:13;;;;;;;3.85;2.47;;;22.40;99.90;;;;;;6089508;23;20093;-85
2023/07/29 10:37:40;;;;;;;2.90;2.03;;;22.60;99.90;;;;;;6092954;23;20014;-89
2023/07/29 10:40:08;;;;;;;2.88;1.85;;;22.80;99.90;;;;;;6093551;23;20144;-85
2023/07/29 10:42:34;;;;;;;3.28;1.98;;;22.70;99.90;;;;;;6069582;23;20120;-86
2023/07/29 10:45:16;;;;;;;2.88;2.22;;;22.70;99.90;;;;;;6094067;23;20053;-88
2023/07/29 10:47:42;;;;;;;;;;;22.70;99.90;;;;;;6096095;23;20041;-84
2023/07/29 10:50:18;;;;;;;3.05;2.00;;;22.50;99.90;;;;;;6046064;23;19920;-85
2023/07/29 10:52:43;;;;;;;4.65;2.30;;;22.30;99.90;;;;;;6094347;23;20115;-83
2023/07/29 10:55:26;;;;;;;2.42;2.17;;;22.00;99.90;;;;;;6092706;23;20046;-84
2023/07/29 10:57:51;;;;;;;2.42;2.10;;;22.00;99.90;;;;;;6094428;23;20036;-85
2023/07/29 11:00:23;;;;;;;3.20;2.30;;;22.10;99.90;;;;;;6093734;23;20018;-85
2023/07/29 11:03:04;;;;;;;4.68;2.42;;;22.10;99.90;;;;;;6067373;23;20073;-85
2023/07/29 11:05:51;;;;;;;3.20;2.35;;;22.00;99.90;;;;;;6093270;23;20026;-84
2023/07/29 11:08:35;;;;;;;4.38;2.58;;;21.90;99.90;;;;;;6093474;23;20132;-85
2023/07/29 11:11:11;;;;;;;3.03;2.10;;;21.90;99.90;;;;;;6093087;23;20546;-82
2023/07/29 11:13:38;;;;;;;3.83;2.25;;;21.90;99.90;;;;;;6070181;23;20340;-86
2023/07/29 11:16:04;;;;;;;2.42;2.08;;;21.90;99.90;;;;;;6093734;23;20025;-86
2023/07/29 11:18:35;;;;;;;3.10;2.80;;;21.90;99.90;;;;;;6094426;23;20045;-87
2023/07/29 11:21:03;;;;;;;2.60;2.10;;;21.70;99.90;;;;;;6069567;23;20440;-83
2023/07/29 11:23:34;;;;;;;3.50;2.10;;;21.60;99.90;;;;;;6093191;23;20018;-88
2023/07/29 11:26:01;;;;;;;3.42;2.10;;;21.30;99.90;;;;;;6094064;23;20169;-86
2023/07/29 11:28:27;;;;;;;3.47;2.00;;;20.90;99.90;;;;;;6094435;23;20014;-86
2023/07/29 11:30:55;;;;;;;3.08;2.05;;;20.60;99.90;;;;;;6094638;23;20344;-85
2023/07/29 11:33:23;;;;;;;3.15;2.20;;;20.50;99.90;;;;;;6096562;23;20024;-88
2023/07/29 11:35:49;;;;;;;3.75;2.70;;;20.40;99.90;;;;;;6070650;23;20053;-86
2023/07/29 11:38:19;;;;;;;5.65;2.58;;;20.30;99.90;;;;;;6093709;23;20070;-86
2023/07/29 11:40:56;;;;;;;4.40;2.53;;;20.30;99.90;;;;;;6093193;23;20033;-85
2023/07/29 11:43:22;;;;;;;5.80;3.00;;;20.30;99.90;;;;;;6093142;23;20499;-88
2023/07/29 11:45:48;;;;;;;3.40;2.72;;;20.30;99.90;;;;;;6094040;23;20057;-86
2023/07/29 11:48:13;;;;;;;4.32;3.10;;;20.40;99.90;;;;;;6093684;23;20018;-86
2023/07/29 11:50:39;;;;;;;4.15;3.22;;;20.50;99.90;;;;;;6092751;23;20386;-87
2023/07/29 11:53:05;;;;;;;5.55;2.90;;;20.60;99.90;;;;;;6093303;23;20429;-87
2023/07/29 11:55:33;;;;;;;3.25;2.70;;;20.90;99.90;;;;;;6092916;23;20022;-85
2023/07/29 11:58:01;;;;;;;5.25;2.78;;;21.10;99.90;;;;;;6093877;23;20046;-79
2023/07/29 12:00:27;;;;;;;3.83;2.55;;;21.20;99.90;;;;;;6069835;23;20021;-89
2023/07/29 12:02:54;;;;;;;3.70;2.60;;;21.40;99.90;;;;;;6046501;23;20352;-84
2023/07/29 12:05:22;;;;;;;4.10;2.50;;;21.50;99.90;;;;;;6093996;23;20025;-84
2023/07/29 12:07:48;;;;;;;4.35;2.72;;;21.50;99.90;;;;;;6093997;23;20014;-83
2023/07/29 12:10:14;;;;;;;4.68;2.63;;;21.50;99.90;;;;;;6070001;23;20077;-84
2023/07/29 12:12:50;;;;;;;5.18;2.63;;;21.60;99.90;;;;;;6093663;23;20033;-83
2023/07/29 12:15:24;;;;;;;4.55;2.80;;;21.80;99.90;;;;;;6093815;23;20019;-86
2023/07/29 12:17:54;;;;;;;3.03;2.50;;;22.00;99.90;;;;;;6069536;23;20011;-87
2023/07/29 12:20:21;;;;;;;4.25;2.72;;;22.00;99.90;;;;;;6094014;23;20014;-81
2023/07/29 12:22:55;;;;;;;5.40;3.17;;;21.90;99.90;;;;;;6093568;23;20014;-84
2023/07/29 12:25:21;;;;;;;3.90;2.40;;;21.90;99.90;;;;;;6094152;23;20030;-84
2023/07/29 12:27:47;;;;;;;5.88;2.83;;;22.10;99.90;;;;;;6093548;23;20019;-83
2023/07/29 12:30:13;;;;;;;5.00;3.13;;;22.30;99.90;;;;;;6070215;23;20089;-84
2023/07/29 12:32:46;;;;;;;4.75;2.63;;;22.40;99.90;;;;;;6070164;23;20018;-83
2023/07/29 12:35:12;;;;;;;3.78;2.38;;;22.50;99.90;;;;;;6093758;23;20022;-88
2023/07/29 12:37:42;;;;;;;3.50;2.13;;;22.60;99.90;;;;;;6093868;23;20022;-85
2023/07/29 12:40:09;;;;;;;6.88;2.65;;;22.70;99.90;;;;;;6074746;23;20496;-86
2023/07/29 12:42:35;;;;;;;3.75;2.70;;;22.80;99.90;;;;;;6093867;23;20015;-84